sensor_id;sensor_type;location;lat;lon;timestamp;P1;durP1;ratioP1;P2;durP2;ratioP2
54977;SDS011;40873;47.522;19.106;2023-09-19T00:00:42;11.25;;;5.43;;
54977;SDS011;40873;47.522;19.106;2023-09-19T00:03:30;9.77;;;4.70;;
54977;SDS011;40873;47.522;19.106;2023-09-19T00:05:58;12.95;;;5.07;;
54977;SDS011;40873;47.522;19.106;2023-09-19T00:08:25;11.27;;;6.20;;
54977;SDS011;40873;47.522;19.106;2023-09-19T00:10:52;12.38;;;5.63;;
54977;SDS011;40873;47.522;19.106;2023-09-19T00:13:21;7.55;;;4.97;;
54977;SDS011;40873;47.522;19.106;2023-09-19T00:15:48;10.65;;;5.10;;
54977;SDS011;40873;47.522;19.106;2023-09-19T00:18:17;9.73;;;5.05;;
54977;SDS011;40873;47.522;19.106;2023-09-19T00:20:49;7.78;;;4.75;;
54977;SDS011;40873;47.522;19.106;2023-09-19T00:23:19;7.40;;;5.43;;
54977;SDS011;40873;47.522;19.106;2023-09-19T00:25:47;11.25;;;5.70;;
54977;SDS011;40873;47.522;19.106;2023-09-19T00:28:14;8.52;;;5.32;;
54977;SDS011;40873;47.522;19.106;2023-09-19T00:30:43;9.10;;;4.75;;
54977;SDS011;40873;47.522;19.106;2023-09-19T00:33:11;9.45;;;5.85;;
54977;SDS011;40873;47.522;19.106;2023-09-19T00:35:46;9.75;;;5.15;;
54977;SDS011;40873;47.522;19.106;2023-09-19T00:38:18;12.30;;;5.30;;
54977;SDS011;40873;47.522;19.106;2023-09-19T00:40:48;11.38;;;5.75;;
54977;SDS011;40873;47.522;19.106;2023-09-19T00:43:16;16.70;;;5.13;;
54977;SDS011;40873;47.522;19.106;2023-09-19T00:45:44;10.43;;;5.28;;
54977;SDS011;40873;47.522;19.106;2023-09-19T00:48:15;7.43;;;5.22;;
54977;SDS011;40873;47.522;19.106;2023-09-19T00:50:44;13.38;;;5.25;;
54977;SDS011;40873;47.522;19.106;2023-09-19T00:53:15;10.15;;;5.15;;
54977;SDS011;40873;47.522;19.106;2023-09-19T00:55:46;7.90;;;5.20;;
54977;SDS011;40873;47.522;19.106;2023-09-19T00:58:16;13.13;;;5.63;;
54977;SDS011;40873;47.522;19.106;2023-09-19T01:00:45;12.50;;;4.72;;
54977;SDS011;40873;47.522;19.106;2023-09-19T01:03:13;10.02;;;5.20;;
54977;SDS011;40873;47.522;19.106;2023-09-19T01:05:40;12.13;;;4.65;;
54977;SDS011;40873;47.522;19.106;2023-09-19T01:08:09;7.85;;;5.13;;
54977;SDS011;40873;47.522;19.106;2023-09-19T01:11:01;9.32;;;5.68;;
54977;SDS011;40873;47.522;19.106;2023-09-19T01:24:54;10.77;;;5.65;;
54977;SDS011;40873;47.522;19.106;2023-09-19T01:30:42;17.00;;;7.40;;
54977;SDS011;40873;47.522;19.106;2023-09-19T01:33:13;12.05;;;5.75;;
54977;SDS011;40873;47.522;19.106;2023-09-19T01:35:41;11.80;;;5.82;;
54977;SDS011;40873;47.522;19.106;2023-09-19T01:38:08;11.88;;;6.18;;
54977;SDS011;40873;47.522;19.106;2023-09-19T01:40:41;13.68;;;6.43;;
54977;SDS011;40873;47.522;19.106;2023-09-19T01:45:52;11.25;;;5.90;;
54977;SDS011;40873;47.522;19.106;2023-09-19T01:51:34;15.77;;;6.63;;
54977;SDS011;40873;47.522;19.106;2023-09-19T01:54:17;11.30;;;5.47;;
54977;SDS011;40873;47.522;19.106;2023-09-19T01:56:59;12.52;;;5.97;;
54977;SDS011;40873;47.522;19.106;2023-09-19T01:59:37;10.80;;;6.50;;
54977;SDS011;40873;47.522;19.106;2023-09-19T02:02:12;10.90;;;6.13;;
54977;SDS011;40873;47.522;19.106;2023-09-19T02:04:41;13.95;;;7.95;;
54977;SDS011;40873;47.522;19.106;2023-09-19T02:07:08;9.77;;;6.07;;
54977;SDS011;40873;47.522;19.106;2023-09-19T02:09:35;8.95;;;6.25;;
54977;SDS011;40873;47.522;19.106;2023-09-19T02:12:04;9.38;;;6.45;;
54977;SDS011;40873;47.522;19.106;2023-09-19T02:14:32;8.57;;;5.78;;
54977;SDS011;40873;47.522;19.106;2023-09-19T02:17:00;11.40;;;6.63;;
54977;SDS011;40873;47.522;19.106;2023-09-19T02:19:27;12.48;;;6.43;;
54977;SDS011;40873;47.522;19.106;2023-09-19T02:21:55;13.63;;;7.13;;
54977;SDS011;40873;47.522;19.106;2023-09-19T02:24:22;16.08;;;7.78;;
54977;SDS011;40873;47.522;19.106;2023-09-19T02:26:53;14.88;;;6.88;;
54977;SDS011;40873;47.522;19.106;2023-09-19T02:29:21;12.32;;;6.50;;
54977;SDS011;40873;47.522;19.106;2023-09-19T02:31:49;12.63;;;6.22;;
54977;SDS011;40873;47.522;19.106;2023-09-19T02:34:16;17.10;;;6.22;;
54977;SDS011;40873;47.522;19.106;2023-09-19T02:36:43;11.75;;;6.43;;
54977;SDS011;40873;47.522;19.106;2023-09-19T02:39:11;12.55;;;6.63;;
54977;SDS011;40873;47.522;19.106;2023-09-19T02:41:38;10.32;;;6.95;;
54977;SDS011;40873;47.522;19.106;2023-09-19T02:44:06;10.82;;;6.95;;
54977;SDS011;40873;47.522;19.106;2023-09-19T02:46:35;12.85;;;7.13;;
54977;SDS011;40873;47.522;19.106;2023-09-19T02:49:03;17.75;;;8.70;;
54977;SDS011;40873;47.522;19.106;2023-09-19T02:51:32;12.50;;;7.18;;
54977;SDS011;40873;47.522;19.106;2023-09-19T02:54:01;16.63;;;6.63;;
54977;SDS011;40873;47.522;19.106;2023-09-19T02:56:29;13.50;;;6.68;;
54977;SDS011;40873;47.522;19.106;2023-09-19T02:58:57;13.30;;;7.43;;
54977;SDS011;40873;47.522;19.106;2023-09-19T03:01:24;12.23;;;7.15;;
54977;SDS011;40873;47.522;19.106;2023-09-19T03:03:51;18.77;;;8.05;;
54977;SDS011;40873;47.522;19.106;2023-09-19T03:06:19;9.88;;;7.20;;
54977;SDS011;40873;47.522;19.106;2023-09-19T03:08:47;14.52;;;7.78;;
54977;SDS011;40873;47.522;19.106;2023-09-19T03:11:16;17.92;;;6.75;;
54977;SDS011;40873;47.522;19.106;2023-09-19T03:13:52;17.45;;;7.40;;
54977;SDS011;40873;47.522;19.106;2023-09-19T03:16:20;16.65;;;7.22;;
54977;SDS011;40873;47.522;19.106;2023-09-19T03:18:49;14.02;;;6.65;;
54977;SDS011;40873;47.522;19.106;2023-09-19T03:21:16;13.95;;;7.60;;
54977;SDS011;40873;47.522;19.106;2023-09-19T03:23:43;14.02;;;7.20;;
54977;SDS011;40873;47.522;19.106;2023-09-19T03:26:12;14.40;;;7.50;;
54977;SDS011;40873;47.522;19.106;2023-09-19T03:28:41;10.75;;;6.75;;
54977;SDS011;40873;47.522;19.106;2023-09-19T03:31:09;12.60;;;7.10;;
54977;SDS011;40873;47.522;19.106;2023-09-19T03:33:36;13.13;;;7.28;;
54977;SDS011;40873;47.522;19.106;2023-09-19T03:36:04;11.07;;;7.13;;
54977;SDS011;40873;47.522;19.106;2023-09-19T03:38:32;16.73;;;7.50;;
54977;SDS011;40873;47.522;19.106;2023-09-19T03:41:01;12.52;;;7.35;;
54977;SDS011;40873;47.522;19.106;2023-09-19T03:43:29;15.77;;;7.63;;
54977;SDS011;40873;47.522;19.106;2023-09-19T03:45:56;16.48;;;7.90;;
54977;SDS011;40873;47.522;19.106;2023-09-19T03:48:23;12.95;;;7.93;;
54977;SDS011;40873;47.522;19.106;2023-09-19T03:50:50;15.68;;;8.85;;
54977;SDS011;40873;47.522;19.106;2023-09-19T03:53:17;14.57;;;8.10;;
54977;SDS011;40873;47.522;19.106;2023-09-19T03:55:45;15.63;;;7.47;;
54977;SDS011;40873;47.522;19.106;2023-09-19T03:58:13;13.02;;;8.07;;
54977;SDS011;40873;47.522;19.106;2023-09-19T04:00:43;17.30;;;8.75;;
54977;SDS011;40873;47.522;19.106;2023-09-19T04:03:11;16.73;;;8.20;;
54977;SDS011;40873;47.522;19.106;2023-09-19T04:05:46;14.05;;;8.60;;
54977;SDS011;40873;47.522;19.106;2023-09-19T04:08:14;17.83;;;7.93;;
54977;SDS011;40873;47.522;19.106;2023-09-19T04:10:42;14.80;;;8.25;;
54977;SDS011;40873;47.522;19.106;2023-09-19T04:13:10;18.02;;;7.78;;
54977;SDS011;40873;47.522;19.106;2023-09-19T04:15:37;16.65;;;8.15;;
54977;SDS011;40873;47.522;19.106;2023-09-19T04:18:06;12.43;;;7.97;;
54977;SDS011;40873;47.522;19.106;2023-09-19T04:20:33;15.50;;;8.02;;
54977;SDS011;40873;47.522;19.106;2023-09-19T04:23:01;13.93;;;8.15;;
54977;SDS011;40873;47.522;19.106;2023-09-19T04:25:30;12.05;;;7.65;;
54977;SDS011;40873;47.522;19.106;2023-09-19T04:27:58;10.05;;;6.45;;
54977;SDS011;40873;47.522;19.106;2023-09-19T04:30:25;10.25;;;6.43;;
54977;SDS011;40873;47.522;19.106;2023-09-19T04:32:53;7.82;;;5.22;;
54977;SDS011;40873;47.522;19.106;2023-09-19T04:35:20;18.02;;;6.10;;
54977;SDS011;40873;47.522;19.106;2023-09-19T04:37:47;12.45;;;4.95;;
54977;SDS011;40873;47.522;19.106;2023-09-19T04:40:14;8.65;;;4.25;;
54977;SDS011;40873;47.522;19.106;2023-09-19T04:42:44;8.45;;;4.78;;
54977;SDS011;40873;47.522;19.106;2023-09-19T04:45:12;9.13;;;4.50;;
54977;SDS011;40873;47.522;19.106;2023-09-19T04:47:40;8.32;;;3.78;;
54977;SDS011;40873;47.522;19.106;2023-09-19T04:50:10;7.28;;;3.45;;
54977;SDS011;40873;47.522;19.106;2023-09-19T04:52:40;7.18;;;3.58;;
54977;SDS011;40873;47.522;19.106;2023-09-19T04:55:09;9.07;;;3.10;;
54977;SDS011;40873;47.522;19.106;2023-09-19T04:57:51;7.75;;;2.47;;
54977;SDS011;40873;47.522;19.106;2023-09-19T05:00:22;11.95;;;4.30;;
54977;SDS011;40873;47.522;19.106;2023-09-19T05:02:51;8.98;;;2.30;;
54977;SDS011;40873;47.522;19.106;2023-09-19T05:05:19;7.15;;;2.13;;
54977;SDS011;40873;47.522;19.106;2023-09-19T05:07:47;3.10;;;1.50;;
54977;SDS011;40873;47.522;19.106;2023-09-19T05:10:14;4.97;;;1.70;;
54977;SDS011;40873;47.522;19.106;2023-09-19T05:12:45;3.03;;;0.95;;
54977;SDS011;40873;47.522;19.106;2023-09-19T05:15:14;5.93;;;1.50;;
54977;SDS011;40873;47.522;19.106;2023-09-19T05:17:50;2.33;;;0.98;;
54977;SDS011;40873;47.522;19.106;2023-09-19T05:20:23;3.38;;;1.15;;
54977;SDS011;40873;47.522;19.106;2023-09-19T05:23:01;5.60;;;1.30;;
54977;SDS011;40873;47.522;19.106;2023-09-19T05:25:29;3.72;;;1.20;;
54977;SDS011;40873;47.522;19.106;2023-09-19T05:27:58;2.42;;;0.70;;
54977;SDS011;40873;47.522;19.106;2023-09-19T05:30:25;2.28;;;0.68;;
54977;SDS011;40873;47.522;19.106;2023-09-19T05:32:56;2.35;;;0.80;;
54977;SDS011;40873;47.522;19.106;2023-09-19T05:35:23;2.30;;;0.60;;
54977;SDS011;40873;47.522;19.106;2023-09-19T05:37:51;3.67;;;0.77;;
54977;SDS011;40873;47.522;19.106;2023-09-19T05:40:19;2.20;;;0.85;;
54977;SDS011;40873;47.522;19.106;2023-09-19T05:42:46;8.60;;;1.15;;
54977;SDS011;40873;47.522;19.106;2023-09-19T05:45:14;1.70;;;0.73;;
54977;SDS011;40873;47.522;19.106;2023-09-19T05:47:45;1.77;;;0.52;;
54977;SDS011;40873;47.522;19.106;2023-09-19T05:50:13;0.75;;;0.35;;
54977;SDS011;40873;47.522;19.106;2023-09-19T05:52:41;6.53;;;2.15;;
54977;SDS011;40873;47.522;19.106;2023-09-19T05:55:09;1.05;;;0.60;;
54977;SDS011;40873;47.522;19.106;2023-09-19T05:57:37;2.97;;;0.88;;
54977;SDS011;40873;47.522;19.106;2023-09-19T06:00:09;1.63;;;0.70;;
54977;SDS011;40873;47.522;19.106;2023-09-19T06:02:40;2.72;;;0.47;;
54977;SDS011;40873;47.522;19.106;2023-09-19T06:05:10;2.17;;;0.98;;
54977;SDS011;40873;47.522;19.106;2023-09-19T06:07:37;1.33;;;0.57;;
54977;SDS011;40873;47.522;19.106;2023-09-19T06:10:04;3.20;;;0.68;;
54977;SDS011;40873;47.522;19.106;2023-09-19T06:12:33;2.75;;;0.50;;
54977;SDS011;40873;47.522;19.106;2023-09-19T06:15:04;1.25;;;0.50;;
54977;SDS011;40873;47.522;19.106;2023-09-19T06:17:33;3.85;;;0.60;;
54977;SDS011;40873;47.522;19.106;2023-09-19T06:20:04;1.30;;;0.50;;
54977;SDS011;40873;47.522;19.106;2023-09-19T06:22:40;1.48;;;0.40;;
54977;SDS011;40873;47.522;19.106;2023-09-19T06:25:11;2.75;;;0.73;;
54977;SDS011;40873;47.522;19.106;2023-09-19T06:27:39;2.97;;;0.70;;
54977;SDS011;40873;47.522;19.106;2023-09-19T06:30:10;3.00;;;0.55;;
54977;SDS011;40873;47.522;19.106;2023-09-19T06:32:41;3.67;;;0.90;;
54977;SDS011;40873;47.522;19.106;2023-09-19T06:35:11;1.17;;;0.75;;
54977;SDS011;40873;47.522;19.106;2023-09-19T06:37:39;2.30;;;0.90;;
54977;SDS011;40873;47.522;19.106;2023-09-19T06:42:41;2.33;;;0.50;;
54977;SDS011;40873;47.522;19.106;2023-09-19T06:45:11;3.38;;;0.70;;
54977;SDS011;40873;47.522;19.106;2023-09-19T06:47:40;1.20;;;0.40;;
54977;SDS011;40873;47.522;19.106;2023-09-19T06:50:07;5.05;;;0.50;;
54977;SDS011;40873;47.522;19.106;2023-09-19T06:52:42;1.83;;;0.40;;
54977;SDS011;40873;47.522;19.106;2023-09-19T06:55:09;4.32;;;0.60;;
54977;SDS011;40873;47.522;19.106;2023-09-19T06:57:38;2.20;;;0.60;;
54977;SDS011;40873;47.522;19.106;2023-09-19T07:00:10;2.60;;;0.63;;
54977;SDS011;40873;47.522;19.106;2023-09-19T07:02:54;3.97;;;0.77;;
54977;SDS011;40873;47.522;19.106;2023-09-19T07:05:27;5.25;;;0.70;;
54977;SDS011;40873;47.522;19.106;2023-09-19T07:07:54;2.05;;;0.70;;
54977;SDS011;40873;47.522;19.106;2023-09-19T07:10:26;3.05;;;0.60;;
54977;SDS011;40873;47.522;19.106;2023-09-19T07:12:57;1.95;;;0.40;;
54977;SDS011;40873;47.522;19.106;2023-09-19T07:15:26;3.90;;;0.80;;
54977;SDS011;40873;47.522;19.106;2023-09-19T07:17:54;3.28;;;0.85;;
54977;SDS011;40873;47.522;19.106;2023-09-19T07:20:23;1.58;;;0.50;;
54977;SDS011;40873;47.522;19.106;2023-09-19T07:22:53;1.95;;;0.40;;
54977;SDS011;40873;47.522;19.106;2023-09-19T07:25:29;0.65;;;0.30;;
54977;SDS011;40873;47.522;19.106;2023-09-19T07:27:58;0.68;;;0.20;;
54977;SDS011;40873;47.522;19.106;2023-09-19T07:30:27;2.80;;;0.55;;
54977;SDS011;40873;47.522;19.106;2023-09-19T07:32:54;2.25;;;0.50;;
54977;SDS011;40873;47.522;19.106;2023-09-19T07:35:21;1.05;;;0.40;;
54977;SDS011;40873;47.522;19.106;2023-09-19T07:37:52;4.53;;;0.50;;
54977;SDS011;40873;47.522;19.106;2023-09-19T07:40:19;1.50;;;0.50;;
54977;SDS011;40873;47.522;19.106;2023-09-19T07:42:48;5.35;;;1.17;;
54977;SDS011;40873;47.522;19.106;2023-09-19T07:45:15;1.70;;;0.43;;
54977;SDS011;40873;47.522;19.106;2023-09-19T07:47:44;2.15;;;0.93;;
54977;SDS011;40873;47.522;19.106;2023-09-19T07:50:12;2.90;;;0.98;;
54977;SDS011;40873;47.522;19.106;2023-09-19T07:52:41;2.60;;;0.70;;
54977;SDS011;40873;47.522;19.106;2023-09-19T07:55:09;2.40;;;0.80;;
54977;SDS011;40873;47.522;19.106;2023-09-19T07:57:38;3.40;;;0.70;;
54977;SDS011;40873;47.522;19.106;2023-09-19T08:00:06;4.93;;;1.27;;
54977;SDS011;40873;47.522;19.106;2023-09-19T08:02:34;3.17;;;1.42;;
54977;SDS011;40873;47.522;19.106;2023-09-19T08:05:05;2.22;;;0.60;;
54977;SDS011;40873;47.522;19.106;2023-09-19T08:07:33;5.55;;;1.40;;
54977;SDS011;40873;47.522;19.106;2023-09-19T08:10:03;2.50;;;1.08;;
54977;SDS011;40873;47.522;19.106;2023-09-19T08:12:34;1.65;;;0.93;;
54977;SDS011;40873;47.522;19.106;2023-09-19T08:15:04;2.60;;;0.75;;
54977;SDS011;40873;47.522;19.106;2023-09-19T08:17:35;2.20;;;0.80;;
54977;SDS011;40873;47.522;19.106;2023-09-19T08:20:02;4.10;;;0.80;;
54977;SDS011;40873;47.522;19.106;2023-09-19T08:22:32;7.35;;;1.52;;
54977;SDS011;40873;47.522;19.106;2023-09-19T08:25:02;3.75;;;1.02;;
54977;SDS011;40873;47.522;19.106;2023-09-19T08:27:34;4.65;;;0.85;;
54977;SDS011;40873;47.522;19.106;2023-09-19T08:30:02;3.50;;;0.85;;
54977;SDS011;40873;47.522;19.106;2023-09-19T08:32:31;3.90;;;0.95;;
54977;SDS011;40873;47.522;19.106;2023-09-19T08:34:58;1.95;;;0.77;;
54977;SDS011;40873;47.522;19.106;2023-09-19T08:37:25;3.47;;;0.70;;
54977;SDS011;40873;47.522;19.106;2023-09-19T08:39:52;2.55;;;0.98;;
54977;SDS011;40873;47.522;19.106;2023-09-19T08:42:19;2.28;;;0.85;;
54977;SDS011;40873;47.522;19.106;2023-09-19T08:44:47;2.83;;;1.15;;
54977;SDS011;40873;47.522;19.106;2023-09-19T08:47:15;1.65;;;0.70;;
54977;SDS011;40873;47.522;19.106;2023-09-19T08:52:36;2.30;;;0.98;;
54977;SDS011;40873;47.522;19.106;2023-09-19T08:55:11;2.88;;;0.73;;
54977;SDS011;40873;47.522;19.106;2023-09-19T08:57:46;2.40;;;0.98;;
54977;SDS011;40873;47.522;19.106;2023-09-19T09:00:16;2.63;;;1.17;;
54977;SDS011;40873;47.522;19.106;2023-09-19T09:02:48;3.67;;;1.05;;
54977;SDS011;40873;47.522;19.106;2023-09-19T09:05:16;1.90;;;0.90;;
54977;SDS011;40873;47.522;19.106;2023-09-19T09:07:49;1.95;;;0.65;;
54977;SDS011;40873;47.522;19.106;2023-09-19T09:10:21;4.82;;;1.20;;
54977;SDS011;40873;47.522;19.106;2023-09-19T09:12:51;5.50;;;1.35;;
54977;SDS011;40873;47.522;19.106;2023-09-19T09:15:19;2.90;;;1.23;;
54977;SDS011;40873;47.522;19.106;2023-09-19T09:17:49;4.22;;;1.70;;
54977;SDS011;40873;47.522;19.106;2023-09-19T09:20:17;2.08;;;0.95;;
54977;SDS011;40873;47.522;19.106;2023-09-19T09:22:51;5.68;;;1.48;;
54977;SDS011;40873;47.522;19.106;2023-09-19T09:25:29;2.85;;;1.08;;
54977;SDS011;40873;47.522;19.106;2023-09-19T09:28:20;3.25;;;1.10;;
54977;SDS011;40873;47.522;19.106;2023-09-19T09:30:48;4.15;;;1.25;;
54977;SDS011;40873;47.522;19.106;2023-09-19T09:33:17;2.85;;;1.27;;
54977;SDS011;40873;47.522;19.106;2023-09-19T09:38:24;6.07;;;1.17;;
54977;SDS011;40873;47.522;19.106;2023-09-19T09:40:54;3.00;;;1.30;;
54977;SDS011;40873;47.522;19.106;2023-09-19T09:43:31;3.13;;;1.65;;
54977;SDS011;40873;47.522;19.106;2023-09-19T09:49:04;2.08;;;0.90;;
54977;SDS011;40873;47.522;19.106;2023-09-19T09:52:03;2.60;;;0.82;;
54977;SDS011;40873;47.522;19.106;2023-09-19T09:55:06;3.35;;;0.75;;
54977;SDS011;40873;47.522;19.106;2023-09-19T09:57:34;1.60;;;0.75;;
54977;SDS011;40873;47.522;19.106;2023-09-19T10:00:04;2.08;;;0.80;;
54977;SDS011;40873;47.522;19.106;2023-09-19T10:02:43;4.53;;;1.17;;
54977;SDS011;40873;47.522;19.106;2023-09-19T10:07:54;3.13;;;1.15;;
54977;SDS011;40873;47.522;19.106;2023-09-19T10:10:36;1.85;;;0.88;;
54977;SDS011;40873;47.522;19.106;2023-09-19T10:13:11;2.45;;;0.77;;
54977;SDS011;40873;47.522;19.106;2023-09-19T10:15:42;1.65;;;0.82;;
54977;SDS011;40873;47.522;19.106;2023-09-19T10:18:21;4.57;;;0.90;;
54977;SDS011;40873;47.522;19.106;2023-09-19T10:20:54;1.85;;;0.63;;
54977;SDS011;40873;47.522;19.106;2023-09-19T10:23:23;2.85;;;0.60;;
54977;SDS011;40873;47.522;19.106;2023-09-19T10:25:56;2.60;;;1.13;;
54977;SDS011;40873;47.522;19.106;2023-09-19T10:28:25;6.35;;;1.00;;
54977;SDS011;40873;47.522;19.106;2023-09-19T10:30:55;3.17;;;1.05;;
54977;SDS011;40873;47.522;19.106;2023-09-19T10:33:24;4.45;;;1.23;;
54977;SDS011;40873;47.522;19.106;2023-09-19T10:35:58;2.55;;;1.08;;
54977;SDS011;40873;47.522;19.106;2023-09-19T10:38:27;3.13;;;1.23;;
54977;SDS011;40873;47.522;19.106;2023-09-19T10:40:56;3.33;;;1.13;;
54977;SDS011;40873;47.522;19.106;2023-09-19T10:43:32;2.97;;;1.00;;
54977;SDS011;40873;47.522;19.106;2023-09-19T10:46:06;8.15;;;2.88;;
54977;SDS011;40873;47.522;19.106;2023-09-19T10:48:34;3.05;;;1.40;;
54977;SDS011;40873;47.522;19.106;2023-09-19T10:54:08;3.08;;;1.45;;
54977;SDS011;40873;47.522;19.106;2023-09-19T11:01:47;4.47;;;1.30;;
54977;SDS011;40873;47.522;19.106;2023-09-19T11:07:04;2.28;;;1.10;;
54977;SDS011;40873;47.522;19.106;2023-09-19T11:09:51;2.47;;;1.33;;
54977;SDS011;40873;47.522;19.106;2023-09-19T11:15:08;6.53;;;1.55;;
54977;SDS011;40873;47.522;19.106;2023-09-19T11:17:37;4.18;;;1.45;;
54977;SDS011;40873;47.522;19.106;2023-09-19T11:30:39;4.03;;;1.40;;
54977;SDS011;40873;47.522;19.106;2023-09-19T11:33:16;1.67;;;0.60;;
54977;SDS011;40873;47.522;19.106;2023-09-19T11:36:10;2.17;;;0.90;;
54977;SDS011;40873;47.522;19.106;2023-09-19T11:43:53;2.17;;;0.45;;
54977;SDS011;40873;47.522;19.106;2023-09-19T11:46:27;2.80;;;0.75;;
54977;SDS011;40873;47.522;19.106;2023-09-19T11:48:55;2.20;;;0.70;;
54977;SDS011;40873;47.522;19.106;2023-09-19T11:51:37;1.45;;;0.60;;
54977;SDS011;40873;47.522;19.106;2023-09-19T11:54:16;3.58;;;0.77;;
54977;SDS011;40873;47.522;19.106;2023-09-19T11:56:49;2.92;;;0.60;;
54977;SDS011;40873;47.522;19.106;2023-09-19T11:59:29;2.42;;;0.90;;
54977;SDS011;40873;47.522;19.106;2023-09-19T12:01:57;4.13;;;0.80;;
54977;SDS011;40873;47.522;19.106;2023-09-19T12:07:15;2.65;;;0.80;;
54977;SDS011;40873;47.522;19.106;2023-09-19T12:09:45;1.92;;;0.60;;
54977;SDS011;40873;47.522;19.106;2023-09-19T12:12:23;1.63;;;0.55;;
54977;SDS011;40873;47.522;19.106;2023-09-19T12:14:55;1.95;;;0.80;;
54977;SDS011;40873;47.522;19.106;2023-09-19T12:17:35;3.55;;;0.75;;
54977;SDS011;40873;47.522;19.106;2023-09-19T12:20:04;1.55;;;1.10;;
54977;SDS011;40873;47.522;19.106;2023-09-19T12:22:41;1.98;;;0.65;;
54977;SDS011;40873;47.522;19.106;2023-09-19T12:25:13;1.98;;;0.57;;
54977;SDS011;40873;47.522;19.106;2023-09-19T12:27:46;2.47;;;1.02;;
54977;SDS011;40873;47.522;19.106;2023-09-19T12:30:15;2.85;;;0.77;;
54977;SDS011;40873;47.522;19.106;2023-09-19T12:32:47;2.40;;;0.70;;
54977;SDS011;40873;47.522;19.106;2023-09-19T12:35:28;2.13;;;0.90;;
54977;SDS011;40873;47.522;19.106;2023-09-19T12:38:23;3.13;;;1.10;;
54977;SDS011;40873;47.522;19.106;2023-09-19T12:41:02;1.60;;;0.70;;
54977;SDS011;40873;47.522;19.106;2023-09-19T12:43:29;3.00;;;0.95;;
54977;SDS011;40873;47.522;19.106;2023-09-19T12:46:00;2.22;;;0.98;;
54977;SDS011;40873;47.522;19.106;2023-09-19T12:48:27;1.58;;;1.00;;
54977;SDS011;40873;47.522;19.106;2023-09-19T12:53:40;1.75;;;1.00;;
54977;SDS011;40873;47.522;19.106;2023-09-19T12:56:14;1.23;;;0.88;;
54977;SDS011;40873;47.522;19.106;2023-09-19T12:58:52;2.45;;;1.10;;
54977;SDS011;40873;47.522;19.106;2023-09-19T13:01:22;2.83;;;1.02;;
54977;SDS011;40873;47.522;19.106;2023-09-19T13:06:42;3.47;;;0.93;;
54977;SDS011;40873;47.522;19.106;2023-09-19T13:09:10;1.60;;;0.70;;
54977;SDS011;40873;47.522;19.106;2023-09-19T13:11:38;1.60;;;0.93;;
54977;SDS011;40873;47.522;19.106;2023-09-19T13:19:34;4.93;;;1.05;;
54977;SDS011;40873;47.522;19.106;2023-09-19T13:22:02;3.58;;;1.02;;
54977;SDS011;40873;47.522;19.106;2023-09-19T13:24:29;1.88;;;0.80;;
54977;SDS011;40873;47.522;19.106;2023-09-19T13:26:57;3.33;;;1.33;;
54977;SDS011;40873;47.522;19.106;2023-09-19T13:29:24;2.03;;;0.90;;
54977;SDS011;40873;47.522;19.106;2023-09-19T13:31:51;1.85;;;1.13;;
54977;SDS011;40873;47.522;19.106;2023-09-19T13:34:22;2.65;;;0.77;;
54977;SDS011;40873;47.522;19.106;2023-09-19T13:36:49;5.07;;;1.23;;
54977;SDS011;40873;47.522;19.106;2023-09-19T13:39:16;1.88;;;1.10;;
54977;SDS011;40873;47.522;19.106;2023-09-19T13:41:44;3.75;;;1.02;;
54977;SDS011;40873;47.522;19.106;2023-09-19T13:44:14;1.85;;;0.95;;
54977;SDS011;40873;47.522;19.106;2023-09-19T13:46:43;2.30;;;0.77;;
54977;SDS011;40873;47.522;19.106;2023-09-19T13:49:13;2.47;;;1.17;;
54977;SDS011;40873;47.522;19.106;2023-09-19T13:51:41;4.95;;;1.10;;
54977;SDS011;40873;47.522;19.106;2023-09-19T13:54:11;2.90;;;0.90;;
54977;SDS011;40873;47.522;19.106;2023-09-19T13:56:39;2.00;;;0.90;;
54977;SDS011;40873;47.522;19.106;2023-09-19T13:59:06;5.60;;;1.27;;
54977;SDS011;40873;47.522;19.106;2023-09-19T14:01:33;5.40;;;1.20;;
54977;SDS011;40873;47.522;19.106;2023-09-19T14:04:00;4.22;;;1.17;;
54977;SDS011;40873;47.522;19.106;2023-09-19T14:06:29;4.28;;;1.27;;
54977;SDS011;40873;47.522;19.106;2023-09-19T14:08:55;2.47;;;1.08;;
54977;SDS011;40873;47.522;19.106;2023-09-19T14:11:23;1.77;;;1.02;;
54977;SDS011;40873;47.522;19.106;2023-09-19T14:13:50;3.53;;;1.38;;
54977;SDS011;40873;47.522;19.106;2023-09-19T14:16:22;3.30;;;1.02;;
54977;SDS011;40873;47.522;19.106;2023-09-19T14:18:51;2.80;;;1.13;;
54977;SDS011;40873;47.522;19.106;2023-09-19T14:21:19;6.00;;;2.55;;
54977;SDS011;40873;47.522;19.106;2023-09-19T14:23:45;2.63;;;1.00;;
54977;SDS011;40873;47.522;19.106;2023-09-19T14:26:13;4.15;;;1.40;;
54977;SDS011;40873;47.522;19.106;2023-09-19T14:28:40;3.63;;;1.20;;
54977;SDS011;40873;47.522;19.106;2023-09-19T14:31:08;2.55;;;1.00;;
54977;SDS011;40873;47.522;19.106;2023-09-19T14:33:36;2.97;;;1.30;;
54977;SDS011;40873;47.522;19.106;2023-09-19T14:36:06;3.47;;;1.17;;
54977;SDS011;40873;47.522;19.106;2023-09-19T14:38:35;4.47;;;1.02;;
54977;SDS011;40873;47.522;19.106;2023-09-19T14:41:05;3.22;;;1.20;;
54977;SDS011;40873;47.522;19.106;2023-09-19T14:43:33;3.35;;;1.33;;
54977;SDS011;40873;47.522;19.106;2023-09-19T14:46:06;2.42;;;1.42;;
54977;SDS011;40873;47.522;19.106;2023-09-19T14:48:37;4.38;;;1.25;;
54977;SDS011;40873;47.522;19.106;2023-09-19T14:51:06;1.45;;;1.00;;
54977;SDS011;40873;47.522;19.106;2023-09-19T14:53:35;4.20;;;1.42;;
54977;SDS011;40873;47.522;19.106;2023-09-19T14:56:07;3.90;;;1.10;;
54977;SDS011;40873;47.522;19.106;2023-09-19T14:58:35;3.15;;;1.40;;
54977;SDS011;40873;47.522;19.106;2023-09-19T15:01:03;2.10;;;1.02;;
54977;SDS011;40873;47.522;19.106;2023-09-19T15:03:36;5.15;;;1.48;;
54977;SDS011;40873;47.522;19.106;2023-09-19T15:06:07;2.75;;;1.10;;
54977;SDS011;40873;47.522;19.106;2023-09-19T15:08:46;2.72;;;1.20;;
54977;SDS011;40873;47.522;19.106;2023-09-19T15:11:15;2.22;;;0.88;;
54977;SDS011;40873;47.522;19.106;2023-09-19T15:13:47;3.73;;;0.83;;
54977;SDS011;40873;47.522;19.106;2023-09-19T15:16:18;1.77;;;1.17;;
54977;SDS011;40873;47.522;19.106;2023-09-19T15:18:46;2.25;;;0.85;;
54977;SDS011;40873;47.522;19.106;2023-09-19T15:21:16;2.72;;;1.00;;
54977;SDS011;40873;47.522;19.106;2023-09-19T15:23:43;3.17;;;0.90;;
54977;SDS011;40873;47.522;19.106;2023-09-19T15:26:12;1.45;;;0.88;;
54977;SDS011;40873;47.522;19.106;2023-09-19T15:28:40;3.50;;;1.17;;
54977;SDS011;40873;47.522;19.106;2023-09-19T15:31:09;3.67;;;0.98;;
54977;SDS011;40873;47.522;19.106;2023-09-19T15:33:37;2.40;;;1.20;;
54977;SDS011;40873;47.522;19.106;2023-09-19T15:38:50;5.38;;;1.42;;
54977;SDS011;40873;47.522;19.106;2023-09-19T15:41:35;2.05;;;0.95;;
54977;SDS011;40873;47.522;19.106;2023-09-19T15:44:04;1.88;;;0.90;;
54977;SDS011;40873;47.522;19.106;2023-09-19T15:46:37;2.40;;;0.90;;
54977;SDS011;40873;47.522;19.106;2023-09-19T15:49:04;1.60;;;1.00;;
54977;SDS011;40873;47.522;19.106;2023-09-19T15:51:33;3.85;;;0.75;;
54977;SDS011;40873;47.522;19.106;2023-09-19T15:54:10;2.83;;;1.23;;
54977;SDS011;40873;47.522;19.106;2023-09-19T15:56:45;2.63;;;0.80;;
54977;SDS011;40873;47.522;19.106;2023-09-19T15:59:13;2.03;;;0.90;;
54977;SDS011;40873;47.522;19.106;2023-09-19T16:01:41;4.20;;;1.50;;
54977;SDS011;40873;47.522;19.106;2023-09-19T16:04:10;3.17;;;1.50;;
54977;SDS011;40873;47.522;19.106;2023-09-19T16:06:39;5.18;;;3.22;;
54977;SDS011;40873;47.522;19.106;2023-09-19T16:09:08;3.70;;;0.90;;